sensor_id;sensor_type;location;lat;lon;timestamp;pressure;altitude;pressure_sealevel;temperature;humidity
59829;BME280;45708;51.848;107.620;2023-05-21T00:04:56;95618.16;;;16.56;39.20
59829;BME280;45708;51.848;107.620;2023-05-21T00:09:57;95607.66;;;17.44;38.22
59829;BME280;45708;51.848;107.620;2023-05-21T00:14:59;95613.56;;;17.68;37.10
59829;BME280;45708;51.848;107.620;2023-05-21T00:20:00;95607.94;;;17.03;37.72
59829;BME280;45708;51.848;107.620;2023-05-21T00:25:01;95601.88;;;18.28;36.35
59829;BME280;45708;51.848;107.620;2023-05-21T00:30:03;95597.88;;;18.62;35.15
59829;BME280;45708;51.848;107.620;2023-05-21T00:35:04;95604.69;;;18.43;35.50
59829;BME280;45708;51.848;107.620;2023-05-21T00:40:07;95608.56;;;18.62;34.90
59829;BME280;45708;51.848;107.620;2023-05-21T00:45:08;95595.09;;;18.52;33.85
59829;BME280;45708;51.848;107.620;2023-05-21T00:50:10;95598.63;;;18.95;34.17
59829;BME280;45708;51.848;107.620;2023-05-21T00:55:11;95582.63;;;19.57;33.25
59829;BME280;45708;51.848;107.620;2023-05-21T01:00:13;95593.50;;;20.39;31.85
59829;BME280;45708;51.848;107.620;2023-05-21T01:05:14;95583.00;;;19.96;31.83
59829;BME280;45708;51.848;107.620;2023-05-21T01:10:15;95593.94;;;19.74;32.35
59829;BME280;45708;51.848;107.620;2023-05-21T01:15:16;95582.88;;;19.61;31.98
59829;BME280;45708;51.848;107.620;2023-05-21T01:20:18;95586.44;;;19.71;32.06
59829;BME280;45708;51.848;107.620;2023-05-21T01:25:21;95582.63;;;19.57;32.25
59829;BME280;45708;51.848;107.620;2023-05-21T01:30:22;95577.53;;;19.61;31.90
59829;BME280;45708;51.848;107.620;2023-05-21T01:35:35;95575.75;;;20.02;31.58
59829;BME280;45708;51.848;107.620;2023-05-21T01:41:02;95573.16;;;20.43;31.54
59829;BME280;45708;51.848;107.620;2023-05-21T01:46:04;95572.81;;;20.09;31.37
59829;BME280;45708;51.848;107.620;2023-05-21T01:51:07;95551.81;;;19.55;31.26
59829;BME280;45708;51.848;107.620;2023-05-21T01:56:08;95552.72;;;20.06;31.32
59829;BME280;45708;51.848;107.620;2023-05-21T02:01:09;95536.06;;;20.40;30.57
59829;BME280;45708;51.848;107.620;2023-05-21T02:06:10;95553.50;;;20.88;30.24
59829;BME280;45708;51.848;107.620;2023-05-21T02:11:11;95538.00;;;20.44;30.60
59829;BME280;45708;51.848;107.620;2023-05-21T02:16:12;95538.22;;;20.07;30.97
59829;BME280;45708;51.848;107.620;2023-05-21T02:21:13;95532.59;;;20.14;30.42
59829;BME280;45708;51.848;107.620;2023-05-21T02:26:13;95525.63;;;20.63;30.29
59829;BME280;45708;51.848;107.620;2023-05-21T02:31:14;95519.19;;;20.29;30.43
59829;BME280;45708;51.848;107.620;2023-05-21T02:36:15;95523.47;;;20.35;30.21
59829;BME280;45708;51.848;107.620;2023-05-21T02:41:16;95525.63;;;20.23;30.56
59829;BME280;45708;51.848;107.620;2023-05-21T02:46:17;95519.72;;;20.05;30.37
59829;BME280;45708;51.848;107.620;2023-05-21T02:51:17;95512.75;;;19.94;30.61
59829;BME280;45708;51.848;107.620;2023-05-21T02:56:18;95510.63;;;18.61;32.81
59829;BME280;45708;51.848;107.620;2023-05-21T03:01:19;95457.91;;;17.23;34.31
59829;BME280;45708;51.848;107.620;2023-05-21T03:06:20;95504.69;;;16.49;35.50
59829;BME280;45708;51.848;107.620;2023-05-21T03:11:21;95501.66;;;15.90;36.66
59829;BME280;45708;51.848;107.620;2023-05-21T03:16:21;95494.41;;;15.85;36.89
59829;BME280;45708;51.848;107.620;2023-05-21T03:21:22;95485.75;;;15.95;36.99
59829;BME280;45708;51.848;107.620;2023-05-21T03:26:26;95475.66;;;16.30;36.45
59829;BME280;45708;51.848;107.620;2023-05-21T03:31:27;95476.13;;;16.27;36.32
59829;BME280;45708;51.848;107.620;2023-05-21T03:36:28;95467.66;;;15.97;36.53
59829;BME280;45708;51.848;107.620;2023-05-21T03:41:29;95453.19;;;16.26;36.39
59829;BME280;45708;51.848;107.620;2023-05-21T03:46:30;95451.19;;;16.00;36.76
59829;BME280;45708;51.848;107.620;2023-05-21T03:51:31;95447.19;;;16.36;36.02
59829;BME280;45708;51.848;107.620;2023-05-21T03:56:32;95436.22;;;16.54;35.87
59829;BME280;45708;51.848;107.620;2023-05-21T04:01:33;95436.09;;;16.83;35.47
59829;BME280;45708;51.848;107.620;2023-05-21T04:06:33;95435.53;;;17.02;35.30
59829;BME280;45708;51.848;107.620;2023-05-21T04:11:34;95422.41;;;17.01;34.80
59829;BME280;45708;51.848;107.620;2023-05-21T04:16:35;95415.19;;;17.23;34.83
59829;BME280;45708;51.848;107.620;2023-05-21T04:21:36;95406.47;;;17.38;33.66
59829;BME280;45708;51.848;107.620;2023-05-21T04:26:37;95408.19;;;17.49;32.80
59829;BME280;45708;51.848;107.620;2023-05-21T04:31:38;95400.69;;;17.46;32.20
59829;BME280;45708;51.848;107.620;2023-05-21T04:36:38;95382.25;;;17.77;31.61
59829;BME280;45708;51.848;107.620;2023-05-21T04:41:39;95362.50;;;17.78;30.70
59829;BME280;45708;51.848;107.620;2023-05-21T04:46:40;95373.84;;;18.00;30.50
59829;BME280;45708;51.848;107.620;2023-05-21T04:51:41;95349.16;;;18.25;29.55
59829;BME280;45708;51.848;107.620;2023-05-21T04:56:42;95354.53;;;18.40;29.18
59829;BME280;45708;51.848;107.620;2023-05-21T05:01:42;95347.84;;;18.33;27.89
59829;BME280;45708;51.848;107.620;2023-05-21T05:06:43;95335.47;;;18.21;26.91
59829;BME280;45708;51.848;107.620;2023-05-21T05:11:44;95331.81;;;18.38;26.87
59829;BME280;45708;51.848;107.620;2023-05-21T05:16:45;95344.00;;;18.76;26.52
59829;BME280;45708;51.848;107.620;2023-05-21T05:21:46;95331.69;;;18.70;26.75
59829;BME280;45708;51.848;107.620;2023-05-21T05:26:46;95334.56;;;18.58;26.11
59829;BME280;45708;51.848;107.620;2023-05-21T05:31:47;95334.00;;;18.46;26.24
59829;BME280;45708;51.848;107.620;2023-05-21T05:36:48;95330.22;;;18.42;26.70
59829;BME280;45708;51.848;107.620;2023-05-21T05:41:49;95317.34;;;18.39;26.88
59829;BME280;45708;51.848;107.620;2023-05-21T05:46:50;95302.69;;;18.46;26.99
59829;BME280;45708;51.848;107.620;2023-05-21T05:51:51;95309.41;;;18.59;26.73
59829;BME280;45708;51.848;107.620;2023-05-21T05:56:52;95287.53;;;18.72;26.30
59829;BME280;45708;51.848;107.620;2023-05-21T06:01:52;95291.28;;;18.81;25.56
59829;BME280;45708;51.848;107.620;2023-05-21T06:06:53;95291.81;;;18.73;25.74
59829;BME280;45708;51.848;107.620;2023-05-21T06:11:55;95277.84;;;18.61;25.25
59829;BME280;45708;51.848;107.620;2023-05-21T06:16:56;95284.78;;;18.57;24.95
59829;BME280;45708;51.848;107.620;2023-05-21T06:21:57;95280.25;;;18.58;25.15
59829;BME280;45708;51.848;107.620;2023-05-21T06:26:57;95270.94;;;18.70;24.59
59829;BME280;45708;51.848;107.620;2023-05-21T06:31:58;95255.97;;;18.79;24.41
59829;BME280;45708;51.848;107.620;2023-05-21T06:36:59;95258.13;;;18.88;24.49
59829;BME280;45708;51.848;107.620;2023-05-21T06:42:00;95212.28;;;18.53;24.20
59829;BME280;45708;51.848;107.620;2023-05-21T06:47:00;95242.59;;;18.90;24.76
59829;BME280;45708;51.848;107.620;2023-05-21T06:52:01;95230.81;;;18.91;24.56
59829;BME280;45708;51.848;107.620;2023-05-21T06:57:02;95216.34;;;18.81;24.44
59829;BME280;45708;51.848;107.620;2023-05-21T07:02:03;95224.38;;;18.76;24.49
59829;BME280;45708;51.848;107.620;2023-05-21T07:07:04;95209.94;;;18.77;24.53
59829;BME280;45708;51.848;107.620;2023-05-21T07:12:05;95200.84;;;18.83;24.80
59829;BME280;45708;51.848;107.620;2023-05-21T07:17:06;95198.69;;;19.06;23.71
59829;BME280;45708;51.848;107.620;2023-05-21T07:22:07;95209.41;;;18.86;23.71
59829;BME280;45708;51.848;107.620;2023-05-21T07:27:07;95192.25;;;18.76;23.70
59829;BME280;45708;51.848;107.620;2023-05-21T07:32:08;95196.53;;;18.98;23.54
59829;BME280;45708;51.848;107.620;2023-05-21T07:37:09;95199.25;;;19.03;23.10
59829;BME280;45708;51.848;107.620;2023-05-21T07:42:10;95178.88;;;19.07;23.47
59829;BME280;45708;51.848;107.620;2023-05-21T07:47:11;95192.81;;;19.04;23.04
59829;BME280;45708;51.848;107.620;2023-05-21T07:52:11;95181.28;;;18.98;23.28
59829;BME280;45708;51.848;107.620;2023-05-21T07:57:12;95174.03;;;19.19;23.25
59829;BME280;45708;51.848;107.620;2023-05-21T08:02:13;95180.19;;;19.20;23.04
59829;BME280;45708;51.848;107.620;2023-05-21T08:07:14;95176.72;;;19.24;22.89
59829;BME280;45708;51.848;107.620;2023-05-21T08:12:14;95187.44;;;19.09;22.71
59829;BME280;45708;51.848;107.620;2023-05-21T08:17:18;95178.06;;;19.11;22.64
59829;BME280;45708;51.848;107.620;2023-05-21T08:22:19;95162.00;;;19.01;22.76
59829;BME280;45708;51.848;107.620;2023-05-21T08:27:20;95160.66;;;19.14;22.33
59829;BME280;45708;51.848;107.620;2023-05-21T08:32:20;95172.69;;;19.27;22.11
59829;BME280;45708;51.848;107.620;2023-05-21T08:37:21;95153.16;;;19.16;21.94
59829;BME280;45708;51.848;107.620;2023-05-21T08:47:34;95160.66;;;19.09;21.66
59829;BME280;45708;51.848;107.620;2023-05-21T08:52:35;95161.47;;;19.09;21.39
59829;BME280;45708;51.848;107.620;2023-05-21T08:57:36;95160.13;;;19.07;21.52
59829;BME280;45708;51.848;107.620;2023-05-21T09:02:40;95149.44;;;18.97;21.67
59829;BME280;45708;51.848;107.620;2023-05-21T09:08:12;95157.44;;;19.02;22.15
59829;BME280;45708;51.848;107.620;2023-05-21T09:13:14;95153.97;;;19.01;21.16
59829;BME280;45708;51.848;107.620;2023-05-21T09:18:17;95137.91;;;19.06;21.28
59829;BME280;45708;51.848;107.620;2023-05-21T09:23:18;95145.66;;;19.18;21.29
59829;BME280;45708;51.848;107.620;2023-05-21T09:28:19;95136.28;;;19.15;21.29
59829;BME280;45708;51.848;107.620;2023-05-21T09:33:27;95125.59;;;19.05;21.27
59829;BME280;45708;51.848;107.620;2023-05-21T09:38:28;95128.56;;;19.04;22.39
59829;BME280;45708;51.848;107.620;2023-05-21T09:43:29;95117.59;;;18.90;21.55
59829;BME280;45708;51.848;107.620;2023-05-21T09:48:37;95131.50;;;18.97;22.00
59829;BME280;45708;51.848;107.620;2023-05-21T09:53:52;95123.22;;;18.94;22.03
59829;BME280;45708;51.848;107.620;2023-05-21T09:58:54;95123.50;;;18.87;22.04
59829;BME280;45708;51.848;107.620;2023-05-21T10:03:58;95114.13;;;18.74;21.99
59829;BME280;45708;51.848;107.620;2023-05-21T10:09:01;95095.16;;;18.66;22.30
59829;BME280;45708;51.848;107.620;2023-05-21T10:14:15;95100.78;;;18.64;22.54
59829;BME280;45708;51.848;107.620;2023-05-21T10:19:16;95095.13;;;18.55;22.05
59829;BME280;45708;51.848;107.620;2023-05-21T10:24:17;95093.25;;;18.56;22.11
59829;BME280;45708;51.848;107.620;2023-05-21T10:29:18;95094.84;;;18.47;22.21
59829;BME280;45708;51.848;107.620;2023-05-21T10:34:20;95093.25;;;18.46;22.15
59829;BME280;45708;51.848;107.620;2023-05-21T10:39:22;95088.16;;;18.34;22.36
59829;BME280;45708;51.848;107.620;2023-05-21T10:44:40;95093.25;;;18.31;22.60
59829;BME280;45708;51.848;107.620;2023-05-21T10:55:32;95087.63;;;18.27;22.78
59829;BME280;45708;51.848;107.620;2023-05-21T11:00:36;95079.84;;;18.15;22.56
59829;BME280;45708;51.848;107.620;2023-05-21T11:05:50;95070.47;;;17.98;23.06
59829;BME280;45708;51.848;107.620;2023-05-21T11:10:53;95075.56;;;17.99;22.64
59829;BME280;45708;51.848;107.620;2023-05-21T11:21:04;95067.50;;;17.79;23.13
59829;BME280;45708;51.848;107.620;2023-05-21T11:26:06;95068.56;;;17.68;23.18
59829;BME280;45708;51.848;107.620;2023-05-21T11:31:26;95065.28;;;17.55;23.77
59829;BME280;45708;51.848;107.620;2023-05-21T11:36:27;95054.00;;;17.38;23.67
59829;BME280;45708;51.848;107.620;2023-05-21T11:41:28;95060.13;;;17.28;23.94
59829;BME280;45708;51.848;107.620;2023-05-21T11:46:28;95048.56;;;17.08;24.49
59829;BME280;45708;51.848;107.620;2023-05-21T11:51:30;95058.69;;;17.06;24.48
59829;BME280;45708;51.848;107.620;2023-05-21T11:56:31;95057.53;;;16.86;24.85
59829;BME280;45708;51.848;107.620;2023-05-21T12:01:32;95056.03;;;16.63;25.26
59829;BME280;45708;51.848;107.620;2023-05-21T12:06:33;95060.16;;;16.44;25.82
59829;BME280;45708;51.848;107.620;2023-05-21T12:11:35;95049.03;;;16.20;25.95
59829;BME280;45708;51.848;107.620;2023-05-21T12:16:36;95055.75;;;15.96;26.88
59829;BME280;45708;51.848;107.620;2023-05-21T12:21:37;95059.94;;;15.60;27.57
59829;BME280;45708;51.848;107.620;2023-05-21T12:26:38;95072.34;;;15.27;28.51
59829;BME280;45708;51.848;107.620;2023-05-21T12:32:02;95069.78;;;14.94;29.14
59829;BME280;45708;51.848;107.620;2023-05-21T12:37:04;95071.69;;;14.59;29.44
59829;BME280;45708;51.848;107.620;2023-05-21T12:42:06;95072.28;;;14.28;30.18
59829;BME280;45708;51.848;107.620;2023-05-21T12:47:07;95069.09;;;13.97;30.46
59829;BME280;45708;51.848;107.620;2023-05-21T12:52:12;95077.28;;;13.79;31.63
59829;BME280;45708;51.848;107.620;2023-05-21T12:57:18;95070.00;;;13.58;31.45
59829;BME280;45708;51.848;107.620;2023-05-21T13:02:30;95059.97;;;13.31;32.23
59829;BME280;45708;51.848;107.620;2023-05-21T13:07:37;95072.81;;;13.23;32.14
59829;BME280;45708;51.848;107.620;2023-05-21T13:12:39;95085.47;;;13.21;32.53
59829;BME280;45708;51.848;107.620;2023-05-21T13:17:40;95084.59;;;13.03;32.78
59829;BME280;45708;51.848;107.620;2023-05-21T13:22:43;95085.97;;;12.94;33.23
59829;BME280;45708;51.848;107.620;2023-05-21T13:27:44;95085.84;;;13.01;33.17
59829;BME280;45708;51.848;107.620;2023-05-21T13:32:45;95087.56;;;13.07;33.20
59829;BME280;45708;51.848;107.620;2023-05-21T13:42:56;95081.94;;;13.03;33.21
59829;BME280;45708;51.848;107.620;2023-05-21T13:47:57;95090.94;;;12.91;33.09
59829;BME280;45708;51.848;107.620;2023-05-21T13:52:58;95095.56;;;12.60;34.54
59829;BME280;45708;51.848;107.620;2023-05-21T13:57:58;95086.66;;;12.19;35.52
59829;BME280;45708;51.848;107.620;2023-05-21T14:03:01;95089.75;;;11.93;35.74
59829;BME280;45708;51.848;107.620;2023-05-21T14:08:02;95103.34;;;11.67;37.13
59829;BME280;45708;51.848;107.620;2023-05-21T14:13:03;95098.19;;;11.42;37.76
59829;BME280;45708;51.848;107.620;2023-05-21T14:18:04;95098.28;;;11.17;37.59
59829;BME280;45708;51.848;107.620;2023-05-21T14:23:05;95102.53;;;11.18;37.15
59829;BME280;45708;51.848;107.620;2023-05-21T14:28:06;95100.19;;;11.10;37.96
59829;BME280;45708;51.848;107.620;2023-05-21T14:33:07;95095.50;;;10.93;38.21
59829;BME280;45708;51.848;107.620;2023-05-21T14:38:07;95084.47;;;10.78;38.02
59829;BME280;45708;51.848;107.620;2023-05-21T14:43:08;95080.06;;;10.54;39.11
59829;BME280;45708;51.848;107.620;2023-05-21T14:48:10;95081.78;;;10.23;40.18
59829;BME280;45708;51.848;107.620;2023-05-21T14:53:11;95075.22;;;10.01;40.42
59829;BME280;45708;51.848;107.620;2023-05-21T14:58:12;95075.56;;;9.86;40.87
59829;BME280;45708;51.848;107.620;2023-05-21T15:03:13;95086.34;;;9.78;41.08
59829;BME280;45708;51.848;107.620;2023-05-21T15:08:13;95091.09;;;9.69;41.25
59829;BME280;45708;51.848;107.620;2023-05-21T15:13:14;95085.28;;;9.54;42.02
59829;BME280;45708;51.848;107.620;2023-05-21T15:18:15;95029.63;;;8.99;42.44
59829;BME280;45708;51.848;107.620;2023-05-21T15:23:16;95092.56;;;9.21;42.81
59829;BME280;45708;51.848;107.620;2023-05-21T15:28:17;95073.34;;;9.13;43.40
59829;BME280;45708;51.848;107.620;2023-05-21T15:33:18;95075.34;;;9.25;43.35
59829;BME280;45708;51.848;107.620;2023-05-21T15:38:19;95083.25;;;9.25;43.32
59829;BME280;45708;51.848;107.620;2023-05-21T15:43:19;95077.44;;;9.09;43.63
59829;BME280;45708;51.848;107.620;2023-05-21T15:48:20;95062.94;;;8.80;44.43
59829;BME280;45708;51.848;107.620;2023-05-21T15:53:21;95071.53;;;8.63;44.85
59829;BME280;45708;51.848;107.620;2023-05-21T15:58:22;95072.78;;;8.47;44.66
59829;BME280;45708;51.848;107.620;2023-05-21T16:03:23;95053.72;;;8.32;44.94
59829;BME280;45708;51.848;107.620;2023-05-21T16:08:24;95064.25;;;8.32;45.67
59829;BME280;45708;51.848;107.620;2023-05-21T16:13:25;95051.13;;;8.12;46.02
59829;BME280;45708;51.848;107.620;2023-05-21T16:18:26;95053.38;;;8.02;46.51
59829;BME280;45708;51.848;107.620;2023-05-21T16:23:27;95054.19;;;8.02;46.85
59829;BME280;45708;51.848;107.620;2023-05-21T16:28:27;95052.56;;;7.94;46.94
59829;BME280;45708;51.848;107.620;2023-05-21T16:33:28;95061.06;;;7.83;47.10
59829;BME280;45708;51.848;107.620;2023-05-21T16:38:30;95047.31;;;7.61;47.80
59829;BME280;45708;51.848;107.620;2023-05-21T16:43:31;95028.25;;;7.40;48.02
59829;BME280;45708;51.848;107.620;2023-05-21T16:48:31;95054.94;;;7.30;48.82
59829;BME280;45708;51.848;107.620;2023-05-21T16:53:32;95050.91;;;7.27;48.35
59829;BME280;45708;51.848;107.620;2023-05-21T16:58:33;95045.25;;;7.24;48.83
59829;BME280;45708;51.848;107.620;2023-05-21T17:03:34;95022.50;;;6.90;49.75
59829;BME280;45708;51.848;107.620;2023-05-21T17:08:35;95042.72;;;6.89;49.68
59829;BME280;45708;51.848;107.620;2023-05-21T17:13:36;95041.09;;;6.88;50.67
59829;BME280;45708;51.848;107.620;2023-05-21T17:18:37;95031.78;;;6.86;50.52
59829;BME280;45708;51.848;107.620;2023-05-21T17:23:38;95018.44;;;6.81;50.08
59829;BME280;45708;51.848;107.620;2023-05-21T17:28:38;95024.88;;;6.71;51.20
59829;BME280;45708;51.848;107.620;2023-05-21T17:33:39;95025.66;;;6.65;51.19
59829;BME280;45708;51.848;107.620;2023-05-21T17:38:40;95029.50;;;6.69;51.27
59829;BME280;45708;51.848;107.620;2023-05-21T17:43:41;95032.94;;;6.63;51.69
59829;BME280;45708;51.848;107.620;2023-05-21T17:48:45;95034.66;;;6.50;52.58
59829;BME280;45708;51.848;107.620;2023-05-21T17:53:45;95027.13;;;6.40;52.42
59829;BME280;45708;51.848;107.620;2023-05-21T17:58:46;95021.06;;;6.33;51.75
59829;BME280;45708;51.848;107.620;2023-05-21T18:03:47;95020.97;;;6.20;52.53
59829;BME280;45708;51.848;107.620;2023-05-21T18:08:48;95019.31;;;6.05;53.34
59829;BME280;45708;51.848;107.620;2023-05-21T18:13:49;95004.31;;;5.99;53.96
59829;BME280;45708;51.848;107.620;2023-05-21T18:18:50;95012.06;;;6.14;53.78
59829;BME280;45708;51.848;107.620;2023-05-21T18:23:50;94996.31;;;6.07;53.06
59829;BME280;45708;51.848;107.620;2023-05-21T18:28:51;94997.09;;;6.01;53.65
59829;BME280;45708;51.848;107.620;2023-05-21T18:33:52;94977.81;;;5.88;53.63
59829;BME280;45708;51.848;107.620;2023-05-21T18:38:53;95007.72;;;5.93;53.46
59829;BME280;45708;51.848;107.620;2023-05-21T18:43:53;95011.88;;;5.88;53.58
59829;BME280;45708;51.848;107.620;2023-05-21T18:48:57;94997.50;;;5.77;54.06
59829;BME280;45708;51.848;107.620;2023-05-21T18:53:58;94990.41;;;5.71;54.40
59829;BME280;45708;51.848;107.620;2023-05-21T18:58:59;94963.97;;;5.66;54.25
59829;BME280;45708;51.848;107.620;2023-05-21T19:04:00;94966.28;;;5.82;54.30
59829;BME280;45708;51.848;107.620;2023-05-21T19:09:00;94991.69;;;5.82;54.48
59829;BME280;45708;51.848;107.620;2023-05-21T19:14:01;94979.53;;;5.74;54.74
59829;BME280;45708;51.848;107.620;2023-05-21T19:19:02;94976.00;;;5.60;55.16
59829;BME280;45708;51.848;107.620;2023-05-21T19:24:03;94978.97;;;5.50;55.49
59829;BME280;45708;51.848;107.620;2023-05-21T19:29:04;94979.72;;;5.44;56.23
59829;BME280;45708;51.848;107.620;2023-05-21T19:34:05;94980.13;;;5.41;56.31
59829;BME280;45708;51.848;107.620;2023-05-21T19:39:06;94976.75;;;5.26;56.19
59829;BME280;45708;51.848;107.620;2023-05-21T19:44:07;94969.63;;;5.20;56.70
59829;BME280;45708;51.848;107.620;2023-05-21T19:49:07;94953.22;;;5.05;56.95
59829;BME280;45708;51.848;107.620;2023-05-21T19:54:08;94957.75;;;4.96;57.17
59829;BME280;45708;51.848;107.620;2023-05-21T19:59:10;94948.66;;;4.92;56.91
59829;BME280;45708;51.848;107.620;2023-05-21T20:04:11;94958.31;;;4.92;56.93
59829;BME280;45708;51.848;107.620;2023-05-21T20:09:12;94930.28;;;4.64;57.43
59829;BME280;45708;51.848;107.620;2023-05-21T20:14:13;94934.22;;;4.60;57.81
59829;BME280;45708;51.848;107.620;2023-05-21T20:19:13;94932.50;;;4.46;58.29
59829;BME280;45708;51.848;107.620;2023-05-21T20:24:14;94934.41;;;4.37;58.73
59829;BME280;45708;51.848;107.620;2023-05-21T20:29:15;94942.59;;;4.34;59.06
59829;BME280;45708;51.848;107.620;2023-05-21T20:34:16;94926.28;;;4.32;58.35
59829;BME280;45708;51.848;107.620;2023-05-21T20:39:17;94923.06;;;4.30;59.40
59829;BME280;45708;51.848;107.620;2023-05-21T20:44:18;94899.13;;;4.12;58.72
59829;BME280;45708;51.848;107.620;2023-05-21T20:49:19;94911.59;;;4.31;58.90
59829;BME280;45708;51.848;107.620;2023-05-21T20:54:19;94927.84;;;4.26;59.17
59829;BME280;45708;51.848;107.620;2023-05-21T20:59:20;94924.50;;;4.18;59.88
59829;BME280;45708;51.848;107.620;2023-05-21T21:04:21;94903.84;;;4.02;60.58
59829;BME280;45708;51.848;107.620;2023-05-21T21:09:21;94920.47;;;4.15;60.31
59829;BME280;45708;51.848;107.620;2023-05-21T21:14:22;94915.25;;;4.15;60.79
59829;BME280;45708;51.848;107.620;2023-05-21T21:19:23;94919.97;;;4.05;61.01
59829;BME280;45708;51.848;107.620;2023-05-21T21:24:24;94919.28;;;3.82;62.44
59829;BME280;45708;51.848;107.620;2023-05-21T21:29:25;94914.19;;;3.80;62.27
59829;BME280;45708;51.848;107.620;2023-05-21T21:34:25;94908.59;;;3.98;61.83
59829;BME280;45708;51.848;107.620;2023-05-21T21:39:26;94908.94;;;4.10;61.38
59829;BME280;45708;51.848;107.620;2023-05-21T21:44:27;94908.56;;;4.27;60.13
59829;BME280;45708;51.848;107.620;2023-05-21T21:49:28;94905.31;;;4.25;60.44
59829;BME280;45708;51.848;107.620;2023-05-21T21:54:28;94913.03;;;4.34;60.01
59829;BME280;45708;51.848;107.620;2023-05-21T21:59:29;94892.88;;;4.27;59.75
59829;BME280;45708;51.848;107.620;2023-05-21T22:04:30;94908.72;;;4.41;58.86
59829;BME280;45708;51.848;107.620;2023-05-21T22:09:31;94916.81;;;4.67;58.36
59829;BME280;45708;51.848;107.620;2023-05-21T22:14:32;94917.50;;;4.76;57.79
59829;BME280;45708;51.848;107.620;2023-05-21T22:19:33;94908.28;;;5.29;57.28
59829;BME280;45708;51.848;107.620;2023-05-21T22:24:34;94906.75;;;7.57;52.63
59829;BME280;45708;51.848;107.620;2023-05-21T22:29:35;94893.75;;;9.60;47.10
59829;BME280;45708;51.848;107.620;2023-05-21T22:34:36;94891.75;;;10.83;44.78
59829;BME280;45708;51.848;107.620;2023-05-21T22:39:36;94909.13;;;11.56;43.13
59829;BME280;45708;51.848;107.620;2023-05-21T22:44:37;94903.28;;;12.12;41.31
59829;BME280;45708;51.848;107.620;2023-05-21T22:49:38;94897.38;;;13.19;39.72
59829;BME280;45708;51.848;107.620;2023-05-21T22:54:39;94889.66;;;14.02;38.05
59829;BME280;45708;51.848;107.620;2023-05-21T22:59:40;94877.72;;;14.65;36.34
59829;BME280;45708;51.848;107.620;2023-05-21T23:04:41;94875.53;;;15.10;35.45
59829;BME280;45708;51.848;107.620;2023-05-21T23:09:42;94867.25;;;16.13;33.95
59829;BME280;45708;51.848;107.620;2023-05-21T23:14:42;94873.34;;;16.66;32.58
59829;BME280;45708;51.848;107.620;2023-05-21T23:19:43;94864.84;;;16.69;32.35
59829;BME280;45708;51.848;107.620;2023-05-21T23:24:44;94860.84;;;16.66;32.38
59829;BME280;45708;51.848;107.620;2023-05-21T23:29:45;94850.97;;;16.67;31.17
59829;BME280;45708;51.848;107.620;2023-05-21T23:34:46;94857.44;;;15.76;32.29
59829;BME280;45708;51.848;107.620;2023-05-21T23:39:47;94842.78;;;17.19;30.29
59829;BME280;45708;51.848;107.620;2023-05-21T23:44:47;94843.38;;;18.67;28.70
59829;BME280;45708;51.848;107.620;2023-05-21T23:49:48;94833.06;;;19.68;27.72
59829;BME280;45708;51.848;107.620;2023-05-21T23:54:49;94842.41;;;19.70;27.28
59829;BME280;45708;51.848;107.620;2023-05-21T23:59:50;94844.97;;;19.52;27.25
